Aérodrome :
LOGIN :

S'inscrire | Disclaimer

   EN    FR    IT 

 










Légende :    VFR   VFR Marginal   IFR   IFR Intensif   IFR Très Intensif
Visi : 
Plafond : 
>= 8 km
>= 3000ft
5 à 8 km
1000 à 3000 ft
1500m à 5 km
500 à 1000 ft
800 à 1500m
200 à 500 ft
< 800m
< 200 ft
Symboles :   Orages  Brouillard  Fortes neiges  Fortes précipitations  Vent > 20 kt
SIGMETs :   Divers  Orages  Givrage  Turbulence  Onde Orograph.  Cendres Volcan.






- Altitude de l'aérodrome : 3125 ft
- Code IATA : ESB


LTAC - Ankara Esenboga

DERNIER METAR :
  • 251250Z VRB02KT CAVOK 08/M15 Q1017 NOSIG RMK RWY21L VRB04KT RWY03L 25002KT RWY21R VRB02KT

METARs EXPIRÉS :
  • 251220Z VRB04KT CAVOK 08/M13 Q1017 NOSIG RMK RWY21L 19004KT 110V240 RWY03L VRB02KT RWY21R VRB03KT
  • 251150Z 05004KT CAVOK 08/M15 Q1018 NOSIG RMK RWY21L VRB03KT RWY03L VRB03KT RWY21R VRB02KT
  • 251120Z VRB04KT CAVOK 08/M13 Q1018 NOSIG RMK RWY21L 09005KT 040V160 RWY03L 29002KT RWY21R VRB02KT
  • 251050Z VRB04KT CAVOK 07/M13 Q1018 NOSIG RMK RWY21L VRB04KT RWY03L 03002KT RWY21R 19004KT 130V250
  • 251020Z 35004KT 9999 FEW040 06/M11 Q1019 NOSIG RMK RWY21L VRB03KT RWY03L 13004KT 080V230 RWY21R VRB02KT

TAF TAF LTAC
Valide du 25 à 12h jusqu'au 26 à 12h UTC


251040Z 2512/2612 VRB02KT CAVOK
BECMG 2602/2604 SCT040



MET'MAP, la Météo Aéronautique d'un coup d'oeil ! - Copyright ORBIFLY Décembre 2007 - Disclaimer

ORBIFLY MET'MAP TEAM :

Programmation & Développement : Alexandra Zaïnal
Sur une idée originale de : Baudouin d'Aumeries
Assistance à la programmation : Marc-Olivier Méhu
Soutien technique & logistique : Manuel Goepfert

Contact : metmap@orbifly.com




SOURCES & CREDITS :

   NOAA